Time;durP1;ratioP1;P1;durP2;ratioP2;P2;SDS_P1;SDS_P2;PMS_P1;PMS_P2;Temp;Humidity;BMP_temperature;BMP_pressure;BME280_temperature;BME280_humidity;BME280_pressure;Samples;Min_cycle;Max_cycle;Signal;HPM_P1;HPM_P2
2021/08/05 00:00:23;;;;;;;;;8.75;6.25;;;;;19.72;73.41;100899.63;5089092;27;47558;-70
2021/08/05 00:02:49;;;;;;;;;7.75;5.75;;;;;19.71;73.62;100898.75;5073229;28;45555;-70
2021/08/05 00:05:14;;;;;;;;;5.75;5.75;;;;;19.74;74.37;100903.03;5072855;28;45485;-70
2021/08/05 00:07:39;;;;;;;;;7.50;7.00;;;;;19.74;74.32;100897.69;5073128;27;45299;-71
2021/08/05 00:10:05;;;;;;;;;6.00;6.00;;;;;19.74;73.87;100895.03;5073511;28;56959;-70
2021/08/05 00:12:31;;;;;;;;;6.50;6.00;;;;;19.76;73.96;100898.41;5074840;28;45351;-70
2021/08/05 00:14:56;;;;;;;;;6.25;6.25;;;;;19.72;74.12;100896.94;5071256;28;45475;-70
2021/08/05 00:17:21;;;;;;;;;10.25;9.00;;;;;19.76;73.83;100890.41;5071685;28;45519;-70
2021/08/05 00:19:47;;;;;;;;;8.50;6.25;;;;;19.77;74.51;100886.75;5074041;27;46687;-70
2021/08/05 00:22:12;;;;;;;;;11.25;8.50;;;;;19.76;73.76;100875.25;5076887;27;45416;-70
2021/08/05 00:24:37;;;;;;;;;8.25;6.75;;;;;19.71;74.23;100872.09;5078199;27;54568;-70
2021/08/05 00:27:03;;;;;;;;;10.50;7.25;;;;;19.73;73.83;100867.50;5076626;27;45378;-70
2021/08/05 00:29:28;;;;;;;;;6.00;5.25;;;;;19.72;73.63;100870.28;5076336;27;45426;-71
2021/08/05 00:31:54;;;;;;;;;9.50;7.50;;;;;19.67;74.26;100867.97;5075287;27;45568;-71
2021/08/05 00:34:19;;;;;;;;;6.00;6.00;;;;;19.63;73.99;100860.34;5076463;28;45358;-70
2021/08/05 00:36:45;;;;;;;;;7.25;7.25;;;;;19.58;74.10;100866.03;5078942;27;45604;-70
2021/08/05 00:39:10;;;;;;;;;11.00;9.25;;;;;19.59;74.51;100858.88;5075919;27;45516;-71
2021/08/05 00:41:36;;;;;;;;;10.50;7.00;;;;;19.57;75.00;100861.63;5076515;28;45429;-70
2021/08/05 00:44:02;;;;;;;;;6.00;6.00;;;;;19.54;74.69;100859.22;5076577;27;45396;-71
2021/08/05 00:46:28;;;;;;;;;8.00;7.00;;;;;19.55;74.68;100864.44;5076529;27;45570;-70
2021/08/05 00:48:53;;;;;;;;;9.50;7.00;;;;;19.50;75.24;100853.28;5078016;27;45746;-70
2021/08/05 00:51:20;;;;;;;;;6.25;6.25;;;;;19.53;75.21;100862.88;5076511;27;45457;-70
2021/08/05 00:53:45;;;;;;;;;12.00;8.00;;;;;19.55;74.77;100861.75;5074461;27;45452;-70
2021/08/05 00:56:12;;;;;;;;;10.75;7.25;;;;;19.55;75.35;100867.09;5074769;27;45827;-70
2021/08/05 00:58:37;;;;;;;;;9.50;8.75;;;;;19.53;75.50;100861.06;5075690;27;45403;-70
2021/08/05 01:01:10;;;;;;;;;9.75;8.00;;;;;19.59;74.89;100859.75;5076995;28;45350;-70
2021/08/05 01:03:41;;;;;;;;;8.50;7.50;;;;;19.53;74.87;100846.88;5075902;28;45500;-70
2021/08/05 01:06:17;;;;;;;;;12.50;8.50;;;;;19.64;74.94;100864.72;5074171;27;45437;-70
2021/08/05 01:08:49;;;;;;;;;9.50;7.25;;;;;19.63;74.95;100860.34;5075912;27;46263;-71
2021/08/05 01:11:21;;;;;;;;;8.50;7.75;;;;;19.62;75.05;100850.66;5076234;27;45433;-70
2021/08/05 01:13:54;;;;;;;;;9.00;7.25;;;;;19.61;74.87;100849.81;5076236;27;45431;-70
2021/08/05 01:16:23;;;;;;;;;9.25;9.00;;;;;19.57;74.94;100845.66;5076034;28;45924;-70
2021/08/05 01:18:51;;;;;;;;;11.75;10.25;;;;;19.56;75.04;100854.63;5077671;27;45694;-70
2021/08/05 01:21:24;;;;;;;;;10.25;9.50;;;;;19.54;75.52;100845.91;5076163;27;45371;-70
2021/08/05 01:23:54;;;;;;;;;9.50;7.75;;;;;19.51;75.43;100849.63;5075701;28;45833;-70
2021/08/05 01:26:38;;;;;;;;;12.50;10.75;;;;;19.51;75.34;100833.66;5075372;27;45402;-71
2021/08/05 01:29:05;;;;;;;;;14.00;10.75;;;;;19.48;75.65;100836.56;5075706;28;45563;-70
2021/08/05 01:31:33;;;;;;;;;9.75;8.50;;;;;19.52;75.25;100842.50;5072965;27;45357;-70
2021/08/05 01:33:58;;;;;;;;;7.25;7.00;;;;;19.53;75.61;100842.38;5076504;27;45445;-71
2021/08/05 01:36:27;;;;;;;;;10.00;9.00;;;;;19.53;75.60;100834.41;5075156;27;45612;-70
2021/08/05 01:38:54;;;;;;;;;11.50;9.25;;;;;19.59;75.34;100840.22;5075546;27;46612;-70
2021/08/05 01:41:22;;;;;;;;;11.25;8.25;;;;;19.60;75.56;100841.94;5074966;27;45953;-70
2021/08/05 01:43:48;;;;;;;;;10.50;8.75;;;;;19.61;75.57;100840.97;5075450;27;45371;-70
2021/08/05 01:46:18;;;;;;;;;8.50;8.00;;;;;19.62;76.18;100839.97;5075702;28;47810;-71
2021/08/05 01:48:45;;;;;;;;;10.75;9.75;;;;;19.62;76.20;100845.31;5076154;28;47691;-70
2021/08/05 01:51:11;;;;;;;;;10.75;10.25;;;;;19.62;76.44;100838.16;5073929;27;45568;-72
2021/08/05 01:53:39;;;;;;;;;12.00;10.25;;;;;19.62;76.16;100829.31;5074835;28;45383;-71
2021/08/05 01:56:05;;;;;;;;;11.00;9.25;;;;;19.64;76.00;100827.41;5074757;27;45503;-70
2021/08/05 01:58:30;;;;;;;;;11.25;11.00;;;;;19.64;76.49;100822.06;5075278;27;45601;-70
2021/08/05 02:00:56;;;;;;;;;12.75;9.50;;;;;19.64;76.16;100816.72;5076334;27;51887;-71
2021/08/05 02:03:21;;;;;;;;;8.00;8.00;;;;;19.63;76.54;100812.34;5077133;27;45471;-71
2021/08/05 02:06:08;;;;;;;;;11.50;10.25;;;;;19.64;76.62;100814.91;5075922;28;45402;-71
2021/08/05 02:08:57;;;;;;;;;10.75;8.75;;;;;19.62;76.17;100808.84;5074955;28;46712;-70
2021/08/05 02:11:25;;;;;;;;;8.00;6.75;;;;;19.62;76.64;100814.16;5074056;28;45727;-71
2021/08/05 02:13:53;;;;;;;;;11.50;9.00;;;;;19.60;76.19;100805.47;5073848;27;45377;-70
2021/08/05 02:16:21;;;;;;;;;11.50;7.25;;;;;19.61;76.31;100806.31;5075236;27;45582;-71
2021/08/05 02:18:49;;;;;;;;;9.25;8.00;;;;;19.60;76.71;100801.94;5076798;27;46838;-70
2021/08/05 02:21:15;;;;;;;;;13.50;9.00;;;;;19.59;76.60;100797.56;5074760;27;46525;-70
2021/08/05 02:23:42;;;;;;;;;10.00;7.75;;;;;19.56;76.25;100794.16;5074887;27;45409;-71
2021/08/05 02:26:08;;;;;;;;;11.50;8.75;;;;;19.58;75.89;100798.53;5074562;27;45486;-70
2021/08/05 02:28:34;;;;;;;;;7.75;7.75;;;;;19.50;76.49;100791.97;5073579;27;45771;-70
2021/08/05 02:31:00;;;;;;;;;10.25;7.75;;;;;19.59;76.33;100802.88;5076071;27;45379;-70
2021/08/05 02:33:28;;;;;;;;;10.50;8.00;;;;;19.58;76.28;100806.53;5077026;27;45478;-70
2021/08/05 02:35:54;;;;;;;;;12.25;7.75;;;;;19.60;75.98;100799.28;5075187;27;45394;-70
2021/08/05 02:38:20;;;;;;;;;9.25;9.25;;;;;19.59;75.43;100797.56;5074307;28;45643;-71
2021/08/05 02:40:48;;;;;;;;;11.75;11.50;;;;;19.55;74.73;100797.78;5074248;27;45529;-70
2021/08/05 02:43:15;;;;;;;;;12.25;10.00;;;;;19.52;74.85;100795.38;5073959;27;45458;-71
2021/08/05 02:45:42;;;;;;;;;13.75;9.25;;;;;19.50;75.43;100797.31;5092145;27;45534;-70
2021/08/05 02:48:09;;;;;;;;;10.75;9.50;;;;;19.49;74.77;100790.28;5074325;27;46611;-70
2021/08/05 02:50:35;;;;;;;;;9.50;9.50;;;;;19.47;74.62;100794.91;5072924;27;45256;-71
2021/08/05 02:53:02;;;;;;;;;8.00;8.00;;;;;19.44;74.93;100789.81;5072146;27;45427;-70
2021/08/05 02:55:28;;;;;;;;;10.25;9.25;;;;;19.45;74.67;100793.31;5074563;28;45324;-70
2021/08/05 02:57:54;;;;;;;;;11.25;10.25;;;;;19.42;75.31;100789.09;5076167;27;45699;-70
2021/08/05 03:00:21;;;;;;;;;12.25;12.25;;;;;19.43;74.89;100784.59;5074453;28;45817;-70
2021/08/05 03:02:48;;;;;;;;;13.00;10.75;;;;;19.38;74.97;100776.13;5074073;27;45395;-71
2021/08/05 03:05:15;;;;;;;;;13.50;11.25;;;;;19.41;74.55;100781.19;5069845;28;45359;-70
2021/08/05 03:07:41;;;;;;;;;13.00;11.50;;;;;19.38;74.91;100779.63;5072495;27;46264;-70
2021/08/05 03:10:08;;;;;;;;;12.00;10.00;;;;;19.41;74.71;100775.88;5074885;27;47097;-70
2021/08/05 03:12:34;;;;;;;;;11.25;10.75;;;;;19.42;74.78;100773.09;5073733;28;45690;-70
2021/08/05 03:15:00;;;;;;;;;10.25;10.25;;;;;19.42;74.60;100781.09;5073964;27;45457;-71
2021/08/05 03:17:26;;;;;;;;;23.50;17.00;;;;;19.40;74.71;100771.50;5073655;28;45483;-70
2021/08/05 03:19:52;;;;;;;;;20.75;15.00;;;;;19.39;74.18;100768.00;5073034;28;45474;-71
2021/08/05 03:22:17;;;;;;;;;11.50;10.50;;;;;19.39;74.55;100770.66;5073119;27;45512;-70
2021/08/05 03:24:43;;;;;;;;;13.00;10.00;;;;;19.39;74.12;100768.00;5075894;28;45387;-70
2021/08/05 03:27:09;;;;;;;;;11.00;10.00;;;;;19.37;74.63;100761.06;5073866;28;45630;-70
2021/08/05 03:29:35;;;;;;;;;11.50;10.50;;;;;19.39;74.29;100772.47;5072098;27;45454;-70
2021/08/05 03:32:01;;;;;;;;;14.75;12.00;;;;;19.36;74.63;100760.22;5073710;27;45436;-70
2021/08/05 03:34:26;;;;;;;;;14.00;10.25;;;;;19.36;74.61;100760.22;5074295;27;45252;-71
2021/08/05 03:36:52;;;;;;;;;10.00;9.25;;;;;19.35;75.02;100761.22;5073692;27;47622;-71
2021/08/05 03:39:18;;;;;;;;;9.00;8.50;;;;;19.34;74.55;100756.84;5090584;27;47656;-70
2021/08/05 03:41:43;;;;;;;;;8.25;8.25;;;;;19.30;74.33;100756.25;5073488;27;45718;-70
2021/08/05 03:44:08;;;;;;;;;14.50;9.75;;;;;19.29;74.31;100753.69;5073734;27;47501;-70
2021/08/05 03:46:33;;;;;;;;;9.00;9.00;;;;;19.24;74.60;100754.06;5072386;27;46142;-71
2021/08/05 03:48:59;;;;;;;;;8.25;7.00;;;;;19.20;75.14;100743.75;5074444;28;50991;-70
2021/08/05 03:51:24;;;;;;;;;6.25;6.25;;;;;19.15;75.30;100741.47;5073447;28;50596;-71
2021/08/05 03:53:49;;;;;;;;;10.50;9.75;;;;;19.10;74.85;100750.78;5073013;27;45515;-70
2021/08/05 03:56:15;;;;;;;;;9.75;8.75;;;;;19.02;74.82;100752.25;5072816;28;46563;-70
2021/08/05 03:58:40;;;;;;;;;9.75;7.75;;;;;18.99;75.20;100752.47;5073448;27;45407;-71
2021/08/05 04:01:06;;;;;;;;;8.75;7.00;;;;;18.99;75.42;100755.13;5073993;27;45578;-71
2021/08/05 04:03:31;;;;;;;;;8.75;7.25;;;;;19.01;75.75;100755.88;5074083;28;45457;-71
2021/08/05 04:05:56;;;;;;;;;10.00;5.75;;;;;18.95;75.65;100744.84;5072473;27;46575;-71
2021/08/05 04:08:22;;;;;;;;;6.50;6.50;;;;;18.97;75.82;100757.06;5071766;27;45500;-70
2021/08/05 04:10:47;;;;;;;;;10.75;7.75;;;;;19.01;76.05;100753.22;5071909;28;45382;-70
2021/08/05 04:13:13;;;;;;;;;7.50;7.00;;;;;19.02;76.39;100754.06;5073019;27;45291;-70
2021/08/05 04:15:41;;;;;;;;;6.25;6.25;;;;;19.03;75.88;100758.41;5075128;27;45257;-70
2021/08/05 04:18:06;;;;;;;;;9.50;8.00;;;;;19.00;76.30;100742.66;5090253;27;45787;-70
2021/08/05 04:20:31;;;;;;;;;10.75;8.75;;;;;19.01;75.76;100745.22;5068312;28;45418;-70
2021/08/05 04:22:57;;;;;;;;;7.25;6.50;;;;;19.01;76.40;100747.88;5072610;27;45523;-70
2021/08/05 04:25:22;;;;;;;;;6.75;6.75;;;;;18.95;76.21;100751.03;5072000;27;54145;-70
2021/08/05 04:27:47;;;;;;;;;9.00;7.00;;;;;19.03;76.11;100756.59;5074690;28;45623;-70
2021/08/05 04:30:14;;;;;;;;;8.00;6.00;;;;;19.07;76.50;100759.03;5072803;28;45339;-70
2021/08/05 04:32:40;;;;;;;;;8.50;6.75;;;;;19.06;76.06;100747.53;5072707;27;45538;-71
2021/08/05 04:35:07;;;;;;;;;11.00;9.25;;;;;19.09;76.14;100757.09;5072510;27;46540;-70
2021/08/05 04:37:33;;;;;;;;;8.75;8.25;;;;;19.09;76.28;100755.28;5072710;27;45727;-70
2021/08/05 04:39:58;;;;;;;;;11.75;9.00;;;;;19.08;76.26;100750.06;5074408;27;45341;-71
2021/08/05 04:42:23;;;;;;;;;8.00;7.25;;;;;19.10;75.94;100740.97;5072527;27;47385;-70
2021/08/05 04:44:49;;;;;;;;;9.25;9.25;;;;;19.14;76.29;100744.25;5072491;28;50202;-70
2021/08/05 04:47:14;;;;;;;;;7.25;7.25;;;;;19.14;76.66;100745.09;5071068;28;45471;-70
2021/08/05 04:49:40;;;;;;;;;10.50;9.50;;;;;19.16;76.39;100751.16;5072581;27;45801;-71
2021/08/05 04:52:06;;;;;;;;;9.25;9.25;;;;;19.20;76.11;100751.75;5072668;27;45355;-71
2021/08/05 04:54:32;;;;;;;;;11.00;9.00;;;;;19.22;76.53;100750.69;5074255;28;46099;-70
2021/08/05 04:56:58;;;;;;;;;10.50;7.25;;;;;19.22;76.80;100740.03;5071334;27;45473;-70
2021/08/05 04:59:23;;;;;;;;;12.25;8.25;;;;;19.24;76.68;100740.75;5073075;28;45381;-70
2021/08/05 05:01:48;;;;;;;;;14.00;12.25;;;;;19.26;76.31;100743.28;5072215;28;47167;-71
2021/08/05 05:04:14;;;;;;;;;15.00;11.25;;;;;19.25;76.06;100741.59;5071784;27;45500;-71
2021/08/05 05:06:39;;;;;;;;;14.00;12.75;;;;;19.29;76.52;100756.38;5075472;28;45501;-70
2021/08/05 05:09:05;;;;;;;;;14.75;10.50;;;;;19.30;76.85;100758.06;5076005;27;45466;-70
2021/08/05 05:11:31;;;;;;;;;13.00;9.50;;;;;19.29;76.32;100754.53;5076786;28;45307;-71
2021/08/05 05:13:57;;;;;;;;;12.75;10.25;;;;;19.32;77.05;100760.63;5075939;28;45567;-70
2021/08/05 05:16:22;;;;;;;;;10.50;8.50;;;;;19.34;76.99;100756.84;5060004;28;45390;-70
2021/08/05 05:18:48;;;;;;;;;9.25;9.25;;;;;19.34;76.37;100759.53;5077421;28;45421;-70
2021/08/05 05:21:13;;;;;;;;;10.75;9.00;;;;;19.35;76.21;100752.38;5074811;27;45342;-70
2021/08/05 05:23:38;;;;;;;;;11.25;9.50;;;;;19.36;76.19;100754.91;5074616;27;51094;-71
2021/08/05 05:26:04;;;;;;;;;11.00;9.75;;;;;19.40;76.63;100760.84;5074196;28;47144;-71
2021/08/05 05:28:30;;;;;;;;;10.00;9.00;;;;;19.38;76.29;100755.66;5075287;28;45269;-71
2021/08/05 05:30:56;;;;;;;;;7.00;7.00;;;;;19.41;76.70;100768.72;5076965;27;45421;-71
2021/08/05 05:33:22;;;;;;;;;14.25;9.00;;;;;19.39;76.57;100754.66;5075135;27;45503;-71
2021/08/05 05:35:47;;;;;;;;;9.25;8.50;;;;;19.40;77.01;100755.50;5092379;27;45601;-70
2021/08/05 05:38:13;;;;;;;;;12.25;9.75;;;;;19.42;77.09;100762.44;5075056;27;46053;-70
2021/08/05 05:40:40;;;;;;;;;10.00;9.00;;;;;19.42;77.03;100765.09;5075273;27;45577;-70
2021/08/05 05:43:06;;;;;;;;;8.75;8.25;;;;;19.44;77.18;100762.31;5076563;27;46577;-70
2021/08/05 05:45:33;;;;;;;;;10.25;8.50;;;;;19.43;76.78;100760.63;5074835;27;45830;-70
2021/08/05 05:48:00;;;;;;;;;10.75;9.00;;;;;19.46;76.77;100761.19;5074755;27;45493;-70
2021/08/05 05:50:26;;;;;;;;;10.00;8.75;;;;;19.49;76.19;100760.13;5074662;27;45492;-71
2021/08/05 05:52:52;;;;;;;;;11.75;9.75;;;;;19.54;76.35;100761.44;5074938;27;46414;-73
2021/08/05 05:55:17;;;;;;;;;8.75;7.50;;;;;19.58;75.79;100762.06;5075262;27;45303;-73
2021/08/05 05:57:43;;;;;;;;;10.75;10.50;;;;;19.61;74.97;100763.66;5077301;27;45351;-72
2021/08/05 06:00:09;;;;;;;;;15.00;10.75;;;;;19.63;75.19;100762.56;5075051;28;45436;-73
2021/08/05 06:02:34;;;;;;;;;10.00;10.00;;;;;19.64;74.08;100760.75;5069355;27;47316;-72
2021/08/05 06:05:00;;;;;;;;;10.00;9.50;;;;;19.70;74.40;100762.91;5071632;28;45385;-73
2021/08/05 06:07:25;;;;;;;;;10.25;10.00;;;;;19.70;73.90;100754.91;5073459;27;46066;-73
2021/08/05 06:09:50;;;;;;;;;14.00;10.50;;;;;19.82;73.62;100777.91;5076322;27;53292;-72
2021/08/05 06:12:16;;;;;;;;;11.75;10.75;;;;;19.86;73.27;100773.19;5074213;27;45746;-73
2021/08/05 06:14:42;;;;;;;;;13.00;11.50;;;;;19.83;73.04;100779.59;5073817;27;45517;-72
2021/08/05 06:17:08;;;;;;;;;15.00;12.00;;;;;19.83;72.47;100787.59;5073482;28;45352;-71
2021/08/05 06:19:33;;;;;;;;;11.75;10.00;;;;;19.76;72.75;100787.25;5075121;28;45274;-70
2021/08/05 06:21:58;;;;;;;;;11.50;9.50;;;;;19.74;72.54;100783.03;5075405;27;45569;-71
2021/08/05 06:24:25;;;;;;;;;14.00;12.25;;;;;19.71;72.88;100780.59;5073400;28;45454;-71
2021/08/05 06:26:51;;;;;;;;;12.00;11.75;;;;;19.70;72.25;100789.56;5074940;27;45770;-70
2021/08/05 06:29:17;;;;;;;;;12.25;11.00;;;;;19.70;72.58;100785.09;5074937;28;45591;-71
2021/08/05 06:31:43;;;;;;;;;9.50;8.50;;;;;19.70;73.10;100793.09;5073109;27;46638;-71
2021/08/05 06:34:09;;;;;;;;;12.50;11.50;;;;;19.71;73.05;100786.78;5074906;27;45611;-71
2021/08/05 06:36:35;;;;;;;;;11.75;9.75;;;;;19.75;73.14;100788.22;5109943;27;45568;-71
2021/08/05 06:39:03;;;;;;;;;12.50;12.50;;;;;19.78;73.54;100780.00;5073506;28;45489;-71
2021/08/05 06:41:28;;;;;;;;;13.50;11.75;;;;;19.81;73.67;100776.22;5073943;27;47176;-70
2021/08/05 06:43:54;;;;;;;;;10.00;9.50;;;;;19.88;73.48;100787.22;5073090;27;45472;-71
2021/08/05 06:46:19;;;;;;;;;13.50;10.25;;;;;19.90;73.54;100786.16;5073789;28;45331;-70
2021/08/05 06:48:45;;;;;;;;;12.00;12.00;;;;;19.94;72.84;100784.06;5075545;28;45672;-70
2021/08/05 06:51:10;;;;;;;;;12.50;12.50;;;;;19.98;73.13;100783.69;5073988;27;45606;-71
2021/08/05 06:53:36;;;;;;;;;12.25;12.25;;;;;20.06;73.38;100780.41;5074124;27;45521;-71
2021/08/05 06:56:01;;;;;;;;;19.00;12.00;;;;;20.12;73.08;100779.91;5074237;27;45538;-71
2021/08/05 06:58:28;;;;;;;;;18.50;12.00;;;;;20.18;73.00;100773.22;5074412;27;45167;-71
2021/08/05 07:00:54;;;;;;;;;13.25;11.50;;;;;20.29;72.59;100781.16;5075426;27;45606;-70
2021/08/05 07:03:19;;;;;;;;;16.00;13.50;;;;;20.37;72.07;100784.06;5073444;27;63611;-71
2021/08/05 07:05:44;;;;;;;;;14.50;13.00;;;;;20.44;72.49;100779.91;5073621;28;51879;-71
2021/08/05 07:08:09;;;;;;;;;13.00;12.25;;;;;20.48;71.96;100775.19;5074528;28;45448;-71
2021/08/05 07:10:35;;;;;;;;;12.00;9.75;;;;;20.58;72.20;100779.63;5074417;28;54990;-71
2021/08/05 07:13:00;;;;;;;;;15.50;13.00;;;;;20.65;71.75;100779.09;5074592;28;45337;-71
2021/08/05 07:15:25;;;;;;;;;15.25;13.75;;;;;20.73;71.81;100780.16;5073371;27;45331;-72
2021/08/05 07:17:51;;;;;;;;;13.75;13.75;;;;;20.84;71.60;100779.25;5073694;28;45409;-71
2021/08/05 07:20:18;;;;;;;;;14.75;10.75;;;;;20.94;70.96;100788.16;5075033;28;46861;-71
2021/08/05 07:22:44;;;;;;;;;16.00;14.00;;;;;21.04;70.56;100777.53;5072397;27;45275;-71
2021/08/05 07:25:12;;;;;;;;;15.25;11.50;;;;;21.17;70.33;100779.97;5074474;27;45494;-71
2021/08/05 07:27:39;;;;;;;;;12.00;10.75;;;;;21.27;70.28;100772.84;5073223;28;45553;-71
2021/08/05 07:30:07;;;;;;;;;13.00;11.00;;;;;21.38;69.94;100774.63;5072201;28;46238;-71
2021/08/05 07:32:32;;;;;;;;;16.00;11.25;;;;;21.41;69.59;100769.00;5072792;28;45726;-71
2021/08/05 07:34:58;;;;;;;;;16.00;12.50;;;;;21.60;69.44;100775.25;5073974;27;45381;-71
2021/08/05 07:37:23;;;;;;;;;12.50;10.25;;;;;21.81;69.13;100777.00;5073945;28;45330;-72
2021/08/05 07:39:48;;;;;;;;;14.50;10.50;;;;;21.99;68.35;100772.69;5075607;27;46085;-71
2021/08/05 07:42:15;;;;;;;;;12.00;10.50;;;;;22.27;68.24;100780.91;5071756;27;45471;-71
2021/08/05 07:44:41;;;;;;;;;17.25;8.25;;;;;22.55;67.38;100781.88;5067766;28;45466;-72
2021/08/05 07:47:06;;;;;;;;;11.00;9.75;;;;;22.78;66.65;100790.47;5073577;28;45472;-72
2021/08/05 07:49:32;;;;;;;;;10.00;8.75;;;;;22.96;66.03;100787.91;5073777;28;57794;-72
2021/08/05 07:51:57;;;;;;;;;12.75;9.75;;;;;23.11;65.18;100781.94;5074714;27;48860;-71
2021/08/05 07:54:22;;;;;;;;;10.25;8.50;;;;;23.25;64.46;100788.69;5074047;28;45463;-71
2021/08/05 07:56:47;;;;;;;;;11.00;10.75;;;;;23.37;64.31;100783.97;5073115;27;45476;-71
2021/08/05 07:59:13;;;;;;;;;13.50;9.25;;;;;23.44;63.82;100777.91;5072010;28;46303;-71
2021/08/05 08:01:38;;;;;;;;;10.00;9.25;;;;;23.53;63.89;100773.47;5071205;28;45301;-71
2021/08/05 08:04:04;;;;;;;;;12.00;11.00;;;;;23.58;63.35;100776.53;5073303;27;45778;-71
2021/08/05 08:06:29;;;;;;;;;9.50;9.50;;;;;23.69;62.98;100771.00;5074162;28;45428;-72
2021/08/05 08:08:54;;;;;;;;;14.00;10.00;;;;;23.88;63.00;100764.69;5072384;28;45508;-72
2021/08/05 08:11:23;;;;;;;;;13.50;11.50;;;;;24.12;62.03;100772.16;5072906;27;45377;-72
2021/08/05 08:13:52;;;;;;;;;12.50;11.50;;;;;24.36;61.67;100771.56;5072989;28;45319;-71
2021/08/05 08:16:19;;;;;;;;;11.75;11.00;;;;;24.60;61.22;100767.41;5073527;27;45341;-71
2021/08/05 08:18:45;;;;;;;;;14.50;11.75;;;;;24.86;60.61;100759.38;5074663;27;45609;-72
2021/08/05 08:21:10;;;;;;;;;14.25;12.75;;;;;25.06;58.94;100766.25;5071189;27;45389;-72
2021/08/05 08:23:36;;;;;;;;;11.25;11.25;;;;;25.08;59.65;100761.53;5068464;27;45476;-72
2021/08/05 08:26:02;;;;;;;;;13.25;11.50;;;;;25.09;59.09;100757.84;5071108;27;45573;-71
2021/08/05 08:28:28;;;;;;;;;13.50;11.75;;;;;25.14;58.89;100766.28;5070479;27;46387;-71
2021/08/05 08:30:53;;;;;;;;;10.75;10.75;;;;;25.36;58.88;100759.50;5070018;28;45578;-71
2021/08/05 08:33:18;;;;;;;;;11.75;10.50;;;;;25.79;56.66;100754.13;5068929;28;45712;-71
2021/08/05 08:35:44;;;;;;;;;12.75;10.00;;;;;26.20;56.75;100753.19;5068348;27;45432;-71
2021/08/05 08:38:09;;;;;;;;;12.50;11.00;;;;;26.49;56.34;100741.97;5069798;28;46334;-71
2021/08/05 08:40:34;;;;;;;;;13.00;11.50;;;;;26.65;55.96;100746.50;5071342;27;45709;-71
2021/08/05 08:43:00;;;;;;;;;12.75;9.75;;;;;26.71;54.07;100744.97;5074834;28;45531;-71
2021/08/05 08:45:26;;;;;;;;;16.25;12.00;;;;;26.73;54.48;100754.59;5075484;27;45619;-71
2021/08/05 08:47:53;;;;;;;;;10.00;9.25;;;;;26.84;54.68;100753.38;5072355;27;45378;-71
2021/08/05 08:50:23;;;;;;;;;15.00;11.25;;;;;27.09;54.37;100751.47;5074369;27;45419;-71
2021/08/05 08:52:50;;;;;;;;;10.00;10.00;;;;;27.60;53.70;100753.84;5072532;27;45476;-71
2021/08/05 08:55:17;;;;;;;;;11.50;9.00;;;;;28.28;51.72;100744.97;5073245;27;45568;-71
2021/08/05 08:57:44;;;;;;;;;11.25;10.25;;;;;28.51;50.72;100748.56;5072671;28;45402;-71
2021/08/05 09:00:10;;;;;;;;;11.50;10.00;;;;;28.45;50.79;100756.53;5072708;27;45745;-72
2021/08/05 09:02:35;;;;;;;;;10.00;10.00;;;;;28.45;50.59;100753.81;5076731;27;45580;-71
2021/08/05 09:05:06;;;;;;;;;11.75;11.00;;;;;28.44;50.05;100752.16;5073536;27;45756;-72
2021/08/05 09:07:33;;;;;;;;;9.75;8.50;;;;;28.36;50.31;100749.53;5073260;27;45493;-72
2021/08/05 09:09:58;;;;;;;;;9.00;8.75;;;;;28.27;50.70;100744.16;5073702;27;45666;-72
2021/08/05 09:12:24;;;;;;;;;10.00;9.00;;;;;28.38;50.45;100745.59;5072283;27;45846;-72
2021/08/05 09:14:51;;;;;;;;;13.75;10.75;;;;;28.77;49.25;100753.56;5069349;27;48693;-72
2021/08/05 09:17:25;;;;;;;;;12.75;10.50;;;;;29.27;48.75;100751.16;5070706;27;45835;-71
2021/08/05 09:20:00;;;;;;;;;8.75;8.75;;;;;28.80;48.75;100750.47;5069759;28;45836;-72
2021/08/05 09:22:34;;;;;;;;;10.00;10.00;;;;;28.34;49.22;100755.94;5061913;28;45504;-72
2021/08/05 09:25:18;;;;;;;;;12.50;10.75;;;;;27.75;48.69;100763.75;5070353;28;45693;-72
2021/08/05 09:27:44;;;;;;;;;11.75;10.00;;;;;27.23;50.39;100760.72;5072631;27;45747;-72
2021/08/05 09:30:10;;;;;;;;;11.00;10.00;;;;;26.71;50.99;100761.97;5072067;27;46019;-72
2021/08/05 09:32:35;;;;;;;;;9.00;9.00;;;;;26.38;51.57;100761.13;5071929;28;45597;-72
2021/08/05 09:35:08;;;;;;;;;11.25;9.25;;;;;26.17;51.63;100767.00;5072437;27;45455;-72
2021/08/05 09:37:38;;;;;;;;;13.00;10.50;;;;;25.97;51.91;100762.94;5072676;27;45575;-72
2021/08/05 09:40:17;;;;;;;;;10.75;10.00;;;;;26.17;52.26;100756.22;5072837;27;45705;-72
2021/08/05 09:42:54;;;;;;;;;9.25;9.00;;;;;26.65;51.17;100756.44;5072649;28;45416;-73
2021/08/05 09:45:36;;;;;;;;;15.00;11.25;;;;;26.87;50.77;100760.28;5070119;27;45591;-72
2021/08/05 09:48:01;;;;;;;;;13.75;13.00;;;;;26.71;49.79;100764.69;5069934;28;45622;-72
2021/08/05 09:50:27;;;;;;;;;11.50;11.50;;;;;26.43;50.35;100757.97;5070180;28;45414;-72
2021/08/05 09:53:06;;;;;;;;;13.25;10.00;;;;;26.35;50.58;100753.38;5070632;27;45926;-71
2021/08/05 09:55:35;;;;;;;;;12.00;10.50;;;;;26.59;51.38;100752.56;5061081;28;45630;-72
2021/08/05 09:58:01;;;;;;;;;12.50;11.25;;;;;27.01;50.11;100735.31;5071862;28;45623;-72
2021/08/05 10:00:26;;;;;;;;;12.50;9.75;;;;;27.63;49.91;100754.31;5073045;27;45616;-71
2021/08/05 10:02:52;;;;;;;;;10.00;9.75;;;;;28.43;48.84;100739.66;5068935;27;45569;-72
2021/08/05 10:05:20;;;;;;;;;15.50;12.00;;;;;29.23;47.46;100734.44;5068911;28;45925;-72
2021/08/05 10:07:47;;;;;;;;;10.75;9.25;;;;;30.09;46.24;100730.09;5072205;27;45468;-73
2021/08/05 10:10:14;;;;;;;;;13.75;13.00;;;;;30.79;45.08;100736.56;5069811;27;45770;-72
2021/08/05 10:12:41;;;;;;;;;10.00;10.00;;;;;30.85;44.15;100724.94;5071634;28;45560;-72
2021/08/05 10:15:12;;;;;;;;;9.50;9.50;;;;;31.03;44.16;100729.00;5069577;27;45583;-72
2021/08/05 10:17:39;;;;;;;;;11.75;11.00;;;;;31.81;43.08;100722.28;5069395;27;46399;-72
2021/08/05 10:20:07;;;;;;;;;9.00;9.00;;;;;32.11;43.42;100711.06;5070569;27;45660;-73
2021/08/05 10:22:33;;;;;;;;;13.50;10.75;;;;;31.63;42.14;100720.09;5070654;27;45759;-72
2021/08/05 10:24:59;;;;;;;;;10.50;10.00;;;;;31.06;43.24;100717.72;5072175;27;45872;-73
2021/08/05 10:27:25;;;;;;;;;7.50;6.25;;;;;30.44;42.54;100724.81;5072586;28;46724;-72
2021/08/05 10:29:52;;;;;;;;;10.50;8.50;;;;;29.66;42.60;100710.25;5070162;27;45584;-72
2021/08/05 10:32:21;;;;;;;;;7.00;6.00;;;;;28.96;43.71;100708.06;5069541;27;45395;-72
2021/08/05 10:34:46;;;;;;;;;5.00;5.00;;;;;28.43;45.06;100705.34;5071748;28;45398;-73
2021/08/05 10:37:13;;;;;;;;;5.50;4.75;;;;;28.15;45.73;100704.22;5071094;27;45429;-72
2021/08/05 10:39:40;;;;;;;;;4.00;4.00;;;;;27.97;44.91;100716.16;5071299;28;45624;-72
2021/08/05 10:42:09;;;;;;;;;4.50;4.50;;;;;27.86;45.49;100704.94;5069353;28;45457;-72
2021/08/05 10:44:36;;;;;;;;;7.25;4.50;;;;;27.94;43.85;100703.03;5070356;28;45366;-72
2021/08/05 10:47:03;;;;;;;;;5.00;5.00;;;;;28.13;45.32;100688.19;5069489;27;45678;-72
2021/08/05 10:49:29;;;;;;;;;5.00;4.00;;;;;28.33;45.75;100675.88;5069952;27;45687;-72
2021/08/05 10:51:55;;;;;;;;;3.25;3.25;;;;;28.55;44.77;100678.72;5072042;27;45461;-72
2021/08/05 10:54:48;;;;;;;;;5.00;4.00;;;;;28.67;43.78;100682.66;5070489;28;45659;-72
2021/08/05 10:57:16;;;;;;;;;4.50;3.00;;;;;28.80;43.48;100676.59;5070518;27;46770;-72
2021/08/05 10:59:59;;;;;;;;;4.00;3.75;;;;;29.01;43.48;100681.28;5071694;27;45786;-71
2021/08/05 11:02:53;;;;;;;;;3.50;3.50;;;;;29.09;42.99;100671.22;5069306;28;48080;-72
2021/08/05 11:05:21;;;;;;;;;5.00;5.00;;;;;29.14;43.42;100670.66;5064114;28;45625;-73
2021/08/05 11:07:54;;;;;;;;;4.25;4.00;;;;;28.84;42.26;100672.50;5068396;28;46484;-72
2021/08/05 11:10:26;;;;;;;;;5.50;4.25;;;;;28.29;42.66;100671.81;5065628;28;45632;-72
2021/08/05 11:12:58;;;;;;;;;5.00;5.00;;;;;27.97;43.88;100670.25;5072350;28;45831;-73
2021/08/05 11:15:26;;;;;;;;;6.25;5.50;;;;;27.78;43.97;100659.94;5070805;27;45705;-72